createdAt,value
2022-09-23T00:01:14.407Z,97433.81
2022-09-23T00:03:45.635Z,97436.53
2022-09-23T00:06:21.294Z,97430.06
2022-09-23T00:08:52.209Z,97433.84
2022-09-23T00:11:26.715Z,97436.19
2022-09-23T00:13:58.447Z,97430.53
2022-09-23T00:16:34.105Z,97432.94
2022-09-23T00:19:06.422Z,97430.00
2022-09-23T00:21:35.552Z,97419.66
2022-09-23T00:24:03.516Z,97429.72
2022-09-23T00:26:31.244Z,97422.06
2022-09-23T00:28:59.090Z,97415.09
2022-09-23T00:31:27.908Z,97416.97
2022-09-23T00:34:01.690Z,97409.47
2022-09-23T00:36:32.677Z,97420.34
2022-09-23T00:40:32.189Z,97407.47
2022-09-23T00:45:55.634Z,97410.50
2022-09-23T00:48:23.430Z,97400.91
2022-09-23T00:50:54.449Z,97399.25
2022-09-23T00:53:27.076Z,97397.56
2022-09-23T00:56:03.675Z,97404.47
2022-09-23T00:58:34.866Z,97406.16
2022-09-23T01:01:05.537Z,97396.94
2022-09-23T01:03:33.198Z,97402.78
2022-09-23T01:06:01.130Z,97403.88
2022-09-23T01:08:29.367Z,97404.78
2022-09-23T01:11:10.571Z,97416.09
2022-09-23T01:13:57.798Z,97397.25
2022-09-23T01:16:46.308Z,97407.69
2022-09-23T01:19:47.252Z,97410.63
2022-09-23T01:22:43.113Z,97410.75
2022-09-23T01:25:36.636Z,97407.78
2022-09-23T01:28:30.068Z,97412.72
2022-09-23T01:31:32.847Z,97405.94
2022-09-23T01:34:13.355Z,97408.88
2022-09-23T01:36:59.531Z,97411.34
2022-09-23T01:42:57.301Z,97408.34
2022-09-23T01:45:44.857Z,97403.00
2022-09-23T01:48:27.294Z,97393.59
2022-09-23T01:51:05.303Z,97402.69
2022-09-23T01:53:40.068Z,97404.66
2022-09-23T01:56:37.375Z,97407.59
2022-09-23T01:59:22.297Z,97409.69
2022-09-23T02:02:16.502Z,97403.53
2022-09-23T02:05:05.909Z,97406.44
2022-09-23T02:07:54.753Z,97397.56
2022-09-23T02:10:26.084Z,97409.69
2022-09-23T02:13:01.885Z,97408.63
2022-09-23T02:15:39.164Z,97413.13
2022-09-23T02:18:42.912Z,97416.38
2022-09-23T02:21:11.926Z,97406.44
2022-09-23T02:23:44.326Z,97410.94
2022-09-23T02:26:39.218Z,97417.44
2022-09-23T02:29:28.800Z,97414.50
2022-09-23T02:32:24.425Z,97419.84
2022-09-23T02:35:27.307Z,97415.31
2022-09-23T02:38:16.497Z,97418.56
2022-09-23T02:41:08.077Z,97418.66
2022-09-23T02:43:50.916Z,97418.47
2022-09-23T02:46:19.467Z,97418.13
2022-09-23T02:49:01.368Z,97424.91
2022-09-23T02:51:38.251Z,97419.22
2022-09-23T02:54:10.803Z,97431.28
2022-09-23T02:56:40.077Z,97422.66
2022-09-23T02:59:09.887Z,97422.44
2022-09-23T03:01:53.941Z,97429.09
2022-09-23T03:04:27.927Z,97431.63
2022-09-23T03:07:14.068Z,97429.75
2022-09-23T03:09:44.270Z,97433.50
2022-09-23T03:12:36.705Z,97428.69
2022-09-23T03:15:24.047Z,97428.69
2022-09-23T03:18:15.312Z,97432.91
2022-09-23T03:20:51.637Z,97436.75
2022-09-23T03:23:25.999Z,97426.50
2022-09-23T03:25:56.798Z,97432.69
2022-09-23T03:28:27.422Z,97432.03
2022-09-23T03:31:01.745Z,97421.50
2022-09-23T03:33:31.926Z,97428.81
2022-09-23T03:36:24.579Z,97428.59
2022-09-23T03:38:59.720Z,97424.94
2022-09-23T03:41:33.557Z,97432.88
2022-09-23T03:44:00.808Z,97430.03
2022-09-23T03:46:30.317Z,97423.16
2022-09-23T03:49:02.789Z,97427.34
2022-09-23T03:51:29.724Z,97422.00
2022-09-23T03:54:01.075Z,97419.91
2022-09-23T03:56:28.459Z,97427.00
2022-09-23T03:58:56.899Z,97419.28
2022-09-23T04:01:24.823Z,97417.38
2022-09-23T04:03:53.771Z,97422.00
2022-09-23T04:06:22.609Z,97420.13
2022-09-23T04:08:50.161Z,97419.91
2022-09-23T04:11:19.785Z,97422.28
2022-09-23T04:13:47.738Z,97415.94
2022-09-23T04:16:17.534Z,97413.41
2022-09-23T04:18:45.231Z,97424.69
2022-09-23T04:21:12.390Z,97426.38
2022-09-23T04:23:39.323Z,97425.03
2022-09-23T04:26:06.808Z,97430.47
2022-09-23T04:28:34.676Z,97434.34
2022-09-23T04:31:05.652Z,97428.38
2022-09-23T04:33:33.086Z,97425.16
2022-09-23T04:36:00.778Z,97430.50
2022-09-23T04:38:28.142Z,97435.72
2022-09-23T04:40:55.179Z,97436.75
2022-09-23T04:43:23.709Z,97446.06
2022-09-23T04:46:06.142Z,97438.22
2022-09-23T04:48:33.263Z,97442.81
2022-09-23T04:51:07.873Z,97440.31
2022-09-23T04:53:39.484Z,97443.16
2022-09-23T04:56:12.956Z,97449.81
2022-09-23T04:58:41.878Z,97445.13
2022-09-23T05:01:14.558Z,97457.38
2022-09-23T05:03:43.264Z,97450.44
2022-09-23T05:06:13.983Z,97458.06
2022-09-23T05:08:50.382Z,97462.38
2022-09-23T05:11:18.933Z,97463.84
2022-09-23T05:13:50.359Z,97465.63
2022-09-23T05:16:18.457Z,97466.13
2022-09-23T05:18:46.937Z,97463.59
2022-09-23T05:21:16.353Z,97467.69
2022-09-23T05:23:47.244Z,97462.34
2022-09-23T05:26:15.473Z,97461.38
2022-09-23T05:28:42.869Z,97459.78
2022-09-23T05:31:19.944Z,97466.25
2022-09-23T05:33:52.197Z,97470.59
2022-09-23T05:36:21.809Z,97467.41
2022-09-23T05:38:50.281Z,97475.31
2022-09-23T05:41:18.877Z,97469.91
2022-09-23T05:43:46.529Z,97464.09
2022-09-23T05:46:23.479Z,97464.06
2022-09-23T05:48:50.778Z,97462.22
2022-09-23T05:51:20.887Z,97463.94
2022-09-23T05:53:48.872Z,97459.53
2022-09-23T05:56:17.026Z,97454.28
2022-09-23T05:58:45.175Z,97454.75
2022-09-23T06:01:14.754Z,97461.31
2022-09-23T06:03:41.740Z,97455.00
2022-09-23T06:06:15.085Z,97460.25
2022-09-23T06:08:42.829Z,97469.19
2022-09-23T06:11:10.435Z,97462.66
2022-09-23T06:13:38.461Z,97457.91
2022-09-23T06:16:09.630Z,97451.03
2022-09-23T06:18:38.896Z,97464.88
2022-09-23T06:21:06.451Z,97457.59
2022-09-23T06:23:34.535Z,97450.59
2022-09-23T06:26:08.799Z,97451.88
2022-09-23T06:28:37.994Z,97456.06
2022-09-23T06:31:14.206Z,97465.28
2022-09-23T06:33:43.184Z,97467.09
2022-09-23T06:36:11.218Z,97459.53
2022-09-23T06:38:42.240Z,97453.91
2022-09-23T06:41:09.763Z,97448.53
2022-09-23T06:43:36.833Z,97451.41
2022-09-23T06:46:06.214Z,97449.81
2022-09-23T06:48:36.756Z,97450.81
2022-09-23T06:51:07.587Z,97449.88
2022-09-23T06:53:34.862Z,97442.16
2022-09-23T06:56:04.626Z,97442.66
2022-09-23T06:58:32.898Z,97445.31
2022-09-23T07:01:08.192Z,97436.91
2022-09-23T07:03:36.285Z,97445.25
2022-09-23T07:06:03.929Z,97440.84
2022-09-23T07:08:34.004Z,97444.84
2022-09-23T07:11:05.004Z,97451.34
2022-09-23T07:13:33.729Z,97446.38
2022-09-23T07:16:02.415Z,97450.72
2022-09-23T07:18:37.258Z,97444.09
2022-09-23T07:21:10.264Z,97457.38
2022-09-23T07:23:38.019Z,97459.50
2022-09-23T07:26:09.133Z,97464.31
2022-09-23T07:28:37.406Z,97465.00
2022-09-23T07:31:10.974Z,97450.41
2022-09-23T07:33:40.113Z,97453.72
2022-09-23T07:36:17.549Z,97452.09
2022-09-23T07:38:45.958Z,97447.47
2022-09-23T07:41:17.169Z,97447.78
2022-09-23T07:43:45.431Z,97451.59
2022-09-23T07:46:16.696Z,97456.91
2022-09-23T07:48:46.088Z,97443.16
2022-09-23T07:51:16.807Z,97451.41
2022-09-23T07:53:48.594Z,97444.69
2022-09-23T07:56:19.645Z,97457.78
2022-09-23T07:59:00.410Z,97445.66
2022-09-23T08:01:39.177Z,97454.34
2022-09-23T08:04:10.804Z,97450.09
2022-09-23T08:06:45.154Z,97451.41
2022-09-23T08:09:12.959Z,97447.47
2022-09-23T08:11:42.365Z,97456.88
2022-09-23T08:14:12.597Z,97451.81
2022-09-23T08:16:40.656Z,97445.59
2022-09-23T08:19:08.829Z,97450.91
2022-09-23T08:21:37.918Z,97455.28
2022-09-23T08:24:14.973Z,97445.75
2022-09-23T08:26:42.243Z,97451.09
2022-09-23T08:29:12.260Z,97447.06
2022-09-23T08:31:39.489Z,97449.03
2022-09-23T08:34:07.146Z,97453.69
2022-09-23T08:36:34.782Z,97457.69
2022-09-23T08:39:02.105Z,97451.69
2022-09-23T08:41:57.580Z,97453.97
2022-09-23T08:44:33.403Z,97459.56
2022-09-23T08:47:00.355Z,97467.19
2022-09-23T08:49:35.946Z,97449.31
2022-09-23T08:52:12.925Z,97462.88
2022-09-23T08:54:40.029Z,97459.72
2022-09-23T08:57:15.340Z,97457.06
2022-09-23T08:59:44.338Z,97456.59
2022-09-23T09:02:22.483Z,97458.63
2022-09-23T09:05:01.512Z,97444.81
2022-09-23T09:07:37.076Z,97444.31
2022-09-23T09:10:16.239Z,97441.66
2022-09-23T09:12:59.243Z,97448.59
2022-09-23T09:15:28.569Z,97445.34
2022-09-23T09:18:17.350Z,97447.38
2022-09-23T09:20:51.563Z,97454.78
2022-09-23T09:23:38.575Z,97446.34
2022-09-23T09:26:10.550Z,97436.78
2022-09-23T09:28:47.762Z,97430.56
2022-09-23T09:31:33.263Z,97437.44
2022-09-23T09:34:03.187Z,97437.84
2022-09-23T09:36:36.511Z,97440.97
2022-09-23T09:39:04.111Z,97433.84
2022-09-23T09:41:33.841Z,97424.31
2022-09-23T09:44:40.158Z,97429.47
2022-09-23T09:47:28.951Z,97422.38
2022-09-23T09:50:10.707Z,97425.78
2022-09-23T09:52:43.679Z,97429.09
2022-09-23T09:55:13.729Z,97420.19
2022-09-23T09:58:02.049Z,97426.72
2022-09-23T10:00:29.637Z,97416.63
2022-09-23T10:03:01.765Z,97411.50
2022-09-23T10:05:33.584Z,97420.41
2022-09-23T10:08:19.107Z,97426.47
2022-09-23T10:11:04.473Z,97426.91
2022-09-23T10:13:32.358Z,97436.09
2022-09-23T10:16:04.175Z,97409.09
2022-09-23T10:18:47.654Z,97422.50
2022-09-23T10:21:18.250Z,97422.34
2022-09-23T10:23:52.293Z,97419.13
2022-09-23T10:26:33.348Z,97411.56
2022-09-23T10:29:20.678Z,97407.28
2022-09-23T10:31:47.591Z,97411.75
2022-09-23T10:34:27.830Z,97406.94
2022-09-23T10:37:14.291Z,97408.53
2022-09-23T10:40:00.189Z,97416.97
2022-09-23T10:42:45.940Z,97416.34
2022-09-23T10:45:43.243Z,97404.38
2022-09-23T10:48:45.282Z,97399.13
2022-09-23T10:51:28.461Z,97402.47
2022-09-23T10:54:30.806Z,97408.56
2022-09-23T10:57:21.688Z,97407.25
2022-09-23T10:59:57.503Z,97418.69
2022-09-23T11:02:41.200Z,97406.84
2022-09-23T11:05:26.809Z,97407.56
2022-09-23T11:08:00.443Z,97406.59
2022-09-23T11:10:46.046Z,97410.94
2022-09-23T11:13:19.795Z,97401.31
2022-09-23T11:16:02.964Z,97391.66
2022-09-23T11:18:37.577Z,97392.00
2022-09-23T11:21:26.764Z,97384.88
2022-09-23T11:24:31.460Z,97381.94
2022-09-23T11:27:37.330Z,97353.56
2022-09-23T11:30:13.564Z,97353.66
2022-09-23T11:32:51.650Z,97346.50
2022-09-23T11:35:26.361Z,97346.69
2022-09-23T11:38:02.076Z,97346.09
2022-09-23T11:40:40.855Z,97339.13
2022-09-23T11:43:23.695Z,97341.38
2022-09-23T11:45:59.304Z,97343.25
2022-09-23T11:48:57.663Z,97341.81
2022-09-23T11:51:34.905Z,97343.13
2022-09-23T11:54:09.848Z,97342.97
2022-09-23T11:56:49.007Z,97338.28
2022-09-23T11:59:39.392Z,97341.63
2022-09-23T12:03:03.895Z,97340.75
2022-09-23T12:05:42.009Z,97341.88
2022-09-23T12:08:29.336Z,97344.72
2022-09-23T12:11:08.770Z,97340.59
2022-09-23T12:14:07.550Z,97334.78
2022-09-23T12:16:43.842Z,97338.84
2022-09-23T12:19:34.408Z,97338.50
2022-09-23T12:22:16.859Z,97334.69
2022-09-23T12:24:59.174Z,97335.38
2022-09-23T12:27:32.909Z,97324.25
2022-09-23T12:30:04.330Z,97325.56
2022-09-23T12:32:32.618Z,97327.16
2022-09-23T12:35:03.040Z,97310.44
2022-09-23T12:37:39.177Z,97329.44
2022-09-23T12:40:10.694Z,97334.84
2022-09-23T12:42:46.337Z,97335.00
2022-09-23T12:45:32.931Z,97328.56
2022-09-23T12:48:03.413Z,97323.69
2022-09-23T12:50:58.771Z,97326.63
2022-09-23T12:53:34.873Z,97320.19
2022-09-23T12:56:15.913Z,97322.44
2022-09-23T12:58:43.107Z,97318.38
2022-09-23T13:01:18.833Z,97311.69
2022-09-23T13:04:16.071Z,97315.69
2022-09-23T13:07:07.215Z,97307.84
2022-09-23T13:09:59.339Z,97316.88
2022-09-23T13:12:33.674Z,97330.25
2022-09-23T13:15:06.923Z,97333.63
2022-09-23T13:17:38.006Z,97325.34
2022-09-23T13:20:26.693Z,97340.56
2022-09-23T13:22:53.765Z,97334.91
2022-09-23T13:25:24.812Z,97341.59
2022-09-23T13:27:56.195Z,97342.63
2022-09-23T13:30:26.640Z,97342.50
2022-09-23T13:33:17.318Z,97341.06
2022-09-23T13:35:52.613Z,97346.75
2022-09-23T13:38:30.333Z,97340.16
2022-09-23T13:41:02.431Z,97354.41
2022-09-23T13:43:41.543Z,97348.84
2022-09-23T13:46:21.571Z,97357.38
2022-09-23T13:48:55.098Z,97354.41
2022-09-23T13:51:33.352Z,97352.22
2022-09-23T13:54:02.784Z,97351.25
2022-09-23T13:56:32.523Z,97345.59
2022-09-23T13:59:38.940Z,97349.59
2022-09-23T14:02:20.250Z,97348.41
2022-09-23T14:04:47.916Z,97346.25
2022-09-23T14:07:22.374Z,97343.81
2022-09-23T14:09:53.261Z,97344.97
2022-09-23T14:12:22.506Z,97351.91
2022-09-23T14:14:53.198Z,97351.75
2022-09-23T14:17:25.936Z,97345.94
2022-09-23T14:19:53.063Z,97350.59
2022-09-23T14:22:29.451Z,97348.25
2022-09-23T14:24:57.740Z,97342.94
2022-09-23T14:27:32.836Z,97336.97
2022-09-23T14:30:02.785Z,97339.84
2022-09-23T14:32:30.957Z,97345.28
2022-09-23T14:35:00.617Z,97347.41
2022-09-23T14:37:51.105Z,97343.97
2022-09-23T14:40:25.148Z,97352.75
2022-09-23T14:42:58.786Z,97355.91
2022-09-23T14:45:28.526Z,97360.06
2022-09-23T14:48:14.943Z,97360.84
2022-09-23T14:50:49.561Z,97360.72
2022-09-23T14:53:19.416Z,97368.13
2022-09-23T14:55:57.455Z,97354.88
2022-09-23T14:58:30.441Z,97363.31
2022-09-23T15:01:02.581Z,97354.84
2022-09-23T15:03:29.799Z,97359.97
2022-09-23T15:06:04.109Z,97354.19
2022-09-23T15:08:35.993Z,97354.53
2022-09-23T15:11:08.214Z,97363.31
2022-09-23T15:13:41.863Z,97361.47
2022-09-23T15:16:08.917Z,97365.78
2022-09-23T15:18:37.924Z,97365.75
2022-09-23T15:21:13.004Z,97371.56
2022-09-23T15:23:49.180Z,97361.47
2022-09-23T15:26:41.168Z,97369.56
2022-09-23T15:29:10.106Z,97368.72
2022-09-23T15:31:38.044Z,97371.31
2022-09-23T15:34:06.846Z,97369.59
2022-09-23T15:36:35.180Z,97374.88
2022-09-23T15:39:04.687Z,97374.97
2022-09-23T15:41:33.561Z,97375.47
2022-09-23T15:44:16.679Z,97372.72
2022-09-23T15:46:50.331Z,97380.00
2022-09-23T15:49:39.185Z,97377.25
2022-09-23T15:52:08.660Z,97383.09
2022-09-23T15:54:35.950Z,97384.34
2022-09-23T15:57:02.996Z,97386.09
2022-09-23T15:59:31.413Z,97378.41
2022-09-23T16:02:03.631Z,97382.19
2022-09-23T16:04:31.710Z,97375.16
2022-09-23T16:06:59.260Z,97383.78
2022-09-23T16:09:30.983Z,97381.28
2022-09-23T16:11:58.374Z,97384.44
2022-09-23T16:14:25.377Z,97389.41
2022-09-23T16:16:52.704Z,97381.94
2022-09-23T16:19:19.678Z,97389.16
2022-09-23T16:21:47.206Z,97387.78
2022-09-23T16:24:19.009Z,97395.09
2022-09-23T16:26:48.413Z,97391.09
2022-09-23T16:29:15.853Z,97396.13
2022-09-23T16:31:43.363Z,97398.09
2022-09-23T16:34:11.060Z,97394.81
2022-09-23T16:36:43.567Z,97397.03
2022-09-23T16:39:13.780Z,97397.31
2022-09-23T16:41:41.377Z,97398.84
2022-09-23T16:44:09.605Z,97400.94
2022-09-23T16:46:37.175Z,97403.19
2022-09-23T16:49:04.794Z,97410.13
2022-09-23T16:51:38.868Z,97415.13
2022-09-23T16:54:11.679Z,97405.84
2022-09-23T16:56:44.569Z,97416.78
2022-09-23T16:59:12.971Z,97417.59
2022-09-23T17:01:58.988Z,97421.47
2022-09-23T17:04:28.122Z,97426.47
2022-09-23T17:06:56.243Z,97435.03
2022-09-23T17:09:27.569Z,97435.84
2022-09-23T17:12:12.388Z,97430.28
2022-09-23T17:14:39.645Z,97445.50
2022-09-23T17:17:06.973Z,97443.03
2022-09-23T17:19:34.932Z,97442.19
2022-09-23T17:22:01.963Z,97439.94
2022-09-23T17:24:28.965Z,97449.00
2022-09-23T17:26:56.330Z,97450.31
2022-09-23T17:29:23.290Z,97456.81
2022-09-23T17:31:50.617Z,97445.03
2022-09-23T17:34:19.623Z,97454.72
2022-09-23T17:36:47.064Z,97460.75
2022-09-23T17:39:14.389Z,97469.16
2022-09-23T17:41:41.610Z,97468.97
2022-09-23T17:44:11.967Z,97460.66
2022-09-23T17:46:39.097Z,97460.19
2022-09-23T17:49:07.172Z,97475.03
2022-09-23T17:51:34.365Z,97477.75
2022-09-23T17:54:01.282Z,97479.16
2022-09-23T17:56:31.334Z,97484.94
2022-09-23T17:59:02.171Z,97478.34
2022-09-23T18:01:29.704Z,97472.88
2022-09-23T18:04:01.933Z,97481.66
2022-09-23T18:06:33.767Z,97486.47
2022-09-23T18:09:04.232Z,97487.72
2022-09-23T18:11:34.614Z,97479.88
2022-09-23T18:14:22.317Z,97492.66
2022-09-23T18:16:50.250Z,97488.16
2022-09-23T18:19:20.503Z,97495.34
2022-09-23T18:21:51.087Z,97489.00
2022-09-23T18:24:31.801Z,97497.28
2022-09-23T18:27:00.354Z,97491.91
2022-09-23T18:29:27.591Z,97492.63
2022-09-23T18:31:55.362Z,97493.34
2022-09-23T18:34:22.535Z,97501.38
2022-09-23T18:36:49.786Z,97504.97
2022-09-23T18:39:17.512Z,97514.00
2022-09-23T18:41:44.405Z,97520.94
2022-09-23T18:44:11.668Z,97509.03
2022-09-23T18:46:38.691Z,97521.19
2022-09-23T18:49:24.379Z,97515.81
2022-09-23T18:51:55.068Z,97516.66
2022-09-23T18:54:27.975Z,97504.97
2022-09-23T18:56:56.230Z,97510.72
2022-09-23T18:59:28.152Z,97510.22
2022-09-23T19:01:55.687Z,97527.88
2022-09-23T19:04:24.770Z,97525.25
2022-09-23T19:06:52.234Z,97514.88
2022-09-23T19:09:19.308Z,97521.91
2022-09-23T19:11:46.562Z,97524.25
2022-09-23T19:14:14.138Z,97521.13
2022-09-23T19:16:41.967Z,97525.91
2022-09-23T19:19:09.825Z,97522.34
2022-09-23T19:21:37.890Z,97524.72
2022-09-23T19:24:07.607Z,97523.06
2022-09-23T19:26:40.573Z,97532.59
2022-09-23T19:29:13.423Z,97525.31
2022-09-23T19:31:41.661Z,97527.09
2022-09-23T19:34:26.228Z,97535.94
2022-09-23T19:36:57.662Z,97532.59
2022-09-23T19:39:28.474Z,97526.75
2022-09-23T19:41:59.462Z,97529.50
2022-09-23T19:44:27.228Z,97533.78
2022-09-23T19:46:56.841Z,97527.84
2022-09-23T19:49:25.563Z,97536.41
2022-09-23T19:51:55.983Z,97540.94
2022-09-23T19:54:27.244Z,97539.00
2022-09-23T19:56:54.869Z,97535.44
2022-09-23T19:59:21.989Z,97535.19
2022-09-23T20:01:49.564Z,97532.09
2022-09-23T20:04:17.417Z,97532.66
2022-09-23T20:06:46.306Z,97535.63
2022-09-23T20:09:13.635Z,97531.69
2022-09-23T20:11:43.263Z,97533.69
2022-09-23T20:14:11.102Z,97535.88
2022-09-23T20:16:43.446Z,97535.25
2022-09-23T20:19:10.810Z,97541.66
2022-09-23T20:21:38.472Z,97542.97
2022-09-23T20:24:07.625Z,97541.25
2022-09-23T20:26:53.312Z,97548.59
2022-09-23T20:29:20.906Z,97546.72
2022-09-23T20:31:48.260Z,97544.19
2022-09-23T20:34:15.713Z,97540.03
2022-09-23T20:36:42.829Z,97549.91
2022-09-23T20:39:10.888Z,97549.28
2022-09-23T20:41:39.603Z,97550.94
2022-09-23T20:44:12.928Z,97556.19
2022-09-23T20:46:45.269Z,97564.25
2022-09-23T20:49:15.465Z,97558.31
2022-09-23T20:51:43.061Z,97566.44
2022-09-23T20:54:12.312Z,97554.13
2022-09-23T20:56:39.730Z,97556.84
2022-09-23T20:59:07.232Z,97559.47
2022-09-23T21:01:36.912Z,97553.72
2022-09-23T21:04:06.282Z,97566.94
2022-09-23T21:06:35.917Z,97558.47
2022-09-23T21:09:04.772Z,97557.31
2022-09-23T21:11:32.409Z,97566.34
2022-09-23T21:14:00.609Z,97568.22
2022-09-23T21:16:28.030Z,97561.53
2022-09-23T21:18:55.110Z,97563.19
2022-09-23T21:21:22.650Z,97564.16
2022-09-23T21:23:51.041Z,97562.47
2022-09-23T21:26:20.911Z,97564.28
2022-09-23T21:28:53.257Z,97569.13
2022-09-23T21:31:23.835Z,97565.19
2022-09-23T21:33:57.025Z,97566.84
2022-09-23T21:36:24.922Z,97566.44
2022-09-23T21:38:52.683Z,97568.09
2022-09-23T21:41:20.358Z,97566.03
2022-09-23T21:43:49.808Z,97571.50
2022-09-23T21:46:21.117Z,97558.72
2022-09-23T21:48:53.205Z,97578.81
2022-09-23T21:51:24.368Z,97574.72
2022-09-23T21:53:52.860Z,97577.97
2022-09-23T21:56:23.009Z,97577.47
2022-09-23T21:58:52.478Z,97584.78
2022-09-23T22:01:22.663Z,97586.78
2022-09-23T22:03:58.255Z,97588.03
2022-09-23T22:06:27.885Z,97581.03
2022-09-23T22:09:00.623Z,97586.44
2022-09-23T22:11:49.260Z,97589.50
2022-09-23T22:14:20.064Z,97591.16
2022-09-23T22:16:47.417Z,97580.63
2022-09-23T22:19:35.673Z,97588.66
2022-09-23T22:22:13.571Z,97588.75
2022-09-23T22:24:46.904Z,97589.31
2022-09-23T22:27:16.159Z,97586.16
2022-09-23T22:30:01.531Z,97581.13
2022-09-23T22:32:40.773Z,97593.47
2022-09-23T22:35:10.831Z,97588.25
2022-09-23T22:37:38.259Z,97586.34
2022-09-23T22:40:14.328Z,97586.66
2022-09-23T22:42:42.207Z,97586.66
2022-09-23T22:45:12.324Z,97577.16
2022-09-23T22:47:41.341Z,97587.41
2022-09-23T22:50:10.182Z,97587.81
2022-09-23T22:52:38.031Z,97589.47
2022-09-23T22:55:08.167Z,97580.19
2022-09-23T22:57:35.354Z,97582.59
2022-09-23T23:00:06.504Z,97584.88
2022-09-23T23:02:33.882Z,97590.31
2022-09-23T23:05:04.706Z,97587.91
2022-09-23T23:07:32.441Z,97578.41
2022-09-23T23:09:59.675Z,97592.19
2022-09-23T23:12:26.636Z,97590.19
2022-09-23T23:14:53.642Z,97585.69
2022-09-23T23:17:20.672Z,97593.03
2022-09-23T23:19:47.846Z,97577.66
2022-09-23T23:22:15.028Z,97581.00
2022-09-23T23:24:42.043Z,97579.34
2022-09-23T23:27:09.408Z,97575.22
2022-09-23T23:29:36.340Z,97573.75
2022-09-23T23:32:03.393Z,97574.50
2022-09-23T23:34:30.366Z,97573.09
2022-09-23T23:36:57.379Z,97568.53
2022-09-23T23:39:25.736Z,97560.16
2022-09-23T23:41:55.113Z,97553.53
2022-09-23T23:44:24.920Z,97563.91
2022-09-23T23:46:52.619Z,97560.56
2022-09-23T23:49:19.830Z,97559.09
2022-09-23T23:51:48.240Z,97565.97
2022-09-23T23:54:15.764Z,97564.50
2022-09-23T23:56:43.263Z,97563.66
2022-09-23T23:59:10.461Z,97554.06
